sensor_id;sensor_type;location;lat;lon;timestamp;P1;durP1;ratioP1;P2;durP2;ratioP2
59147;SDS011;44930;52.878;6.168;2023-11-21T00:00:03;24.23;;;8.10;;
59147;SDS011;44930;52.878;6.168;2023-11-21T00:02:35;25.80;;;8.57;;
59147;SDS011;44930;52.878;6.168;2023-11-21T00:05:03;20.15;;;7.78;;
59147;SDS011;44930;52.878;6.168;2023-11-21T00:07:29;24.00;;;8.55;;
59147;SDS011;44930;52.878;6.168;2023-11-21T00:09:55;25.70;;;8.48;;
59147;SDS011;44930;52.878;6.168;2023-11-21T00:12:21;24.25;;;8.63;;
59147;SDS011;44930;52.878;6.168;2023-11-21T00:14:46;23.65;;;8.95;;
59147;SDS011;44930;52.878;6.168;2023-11-21T00:17:12;28.02;;;8.43;;
59147;SDS011;44930;52.878;6.168;2023-11-21T00:19:37;28.25;;;8.35;;
59147;SDS011;44930;52.878;6.168;2023-11-21T00:22:03;28.17;;;8.60;;
59147;SDS011;44930;52.878;6.168;2023-11-21T00:24:31;27.25;;;9.00;;
59147;SDS011;44930;52.878;6.168;2023-11-21T00:26:57;27.60;;;8.23;;
59147;SDS011;44930;52.878;6.168;2023-11-21T00:29:22;24.40;;;8.43;;
59147;SDS011;44930;52.878;6.168;2023-11-21T00:31:48;24.77;;;9.45;;
59147;SDS011;44930;52.878;6.168;2023-11-21T00:34:14;22.17;;;8.52;;
59147;SDS011;44930;52.878;6.168;2023-11-21T00:36:40;30.35;;;9.52;;
59147;SDS011;44930;52.878;6.168;2023-11-21T00:39:06;26.25;;;8.57;;
59147;SDS011;44930;52.878;6.168;2023-11-21T00:41:32;25.13;;;8.50;;
59147;SDS011;44930;52.878;6.168;2023-11-21T00:43:58;25.15;;;9.00;;
59147;SDS011;44930;52.878;6.168;2023-11-21T00:46:24;23.48;;;9.52;;
59147;SDS011;44930;52.878;6.168;2023-11-21T00:48:52;26.23;;;9.18;;
59147;SDS011;44930;52.878;6.168;2023-11-21T00:51:19;26.55;;;8.68;;
59147;SDS011;44930;52.878;6.168;2023-11-21T00:53:44;28.23;;;8.85;;
59147;SDS011;44930;52.878;6.168;2023-11-21T00:56:10;28.20;;;9.68;;
59147;SDS011;44930;52.878;6.168;2023-11-21T00:58:36;27.20;;;9.32;;
59147;SDS011;44930;52.878;6.168;2023-11-21T01:01:01;29.40;;;10.52;;
59147;SDS011;44930;52.878;6.168;2023-11-21T01:03:28;21.88;;;9.00;;
59147;SDS011;44930;52.878;6.168;2023-11-21T01:05:54;27.48;;;8.85;;
59147;SDS011;44930;52.878;6.168;2023-11-21T01:08:19;31.90;;;9.45;;
59147;SDS011;44930;52.878;6.168;2023-11-21T01:10:45;33.40;;;9.50;;
59147;SDS011;44930;52.878;6.168;2023-11-21T01:13:11;21.38;;;7.43;;
59147;SDS011;44930;52.878;6.168;2023-11-21T01:15:36;26.58;;;10.25;;
59147;SDS011;44930;52.878;6.168;2023-11-21T01:18:02;31.65;;;9.38;;
59147;SDS011;44930;52.878;6.168;2023-11-21T01:20:28;33.00;;;10.77;;
59147;SDS011;44930;52.878;6.168;2023-11-21T01:22:54;25.85;;;8.88;;
59147;SDS011;44930;52.878;6.168;2023-11-21T01:25:20;32.40;;;9.60;;
59147;SDS011;44930;52.878;6.168;2023-11-21T01:27:46;28.85;;;9.85;;
59147;SDS011;44930;52.878;6.168;2023-11-21T01:30:12;20.55;;;8.38;;
59147;SDS011;44930;52.878;6.168;2023-11-21T01:32:38;26.80;;;10.38;;
59147;SDS011;44930;52.878;6.168;2023-11-21T01:35:04;34.45;;;9.95;;
59147;SDS011;44930;52.878;6.168;2023-11-21T01:37:31;30.25;;;9.20;;
59147;SDS011;44930;52.878;6.168;2023-11-21T01:39:58;25.25;;;9.40;;
59147;SDS011;44930;52.878;6.168;2023-11-21T01:42:25;33.55;;;9.35;;
59147;SDS011;44930;52.878;6.168;2023-11-21T01:44:50;36.20;;;9.75;;
59147;SDS011;44930;52.878;6.168;2023-11-21T01:47:16;27.98;;;9.68;;
59147;SDS011;44930;52.878;6.168;2023-11-21T01:49:43;29.65;;;11.18;;
59147;SDS011;44930;52.878;6.168;2023-11-21T01:52:10;28.98;;;9.65;;
59147;SDS011;44930;52.878;6.168;2023-11-21T01:54:36;33.97;;;9.90;;
59147;SDS011;44930;52.878;6.168;2023-11-21T01:57:02;27.98;;;11.13;;
59147;SDS011;44930;52.878;6.168;2023-11-21T01:59:35;30.00;;;10.57;;
59147;SDS011;44930;52.878;6.168;2023-11-21T02:02:05;33.05;;;10.95;;
59147;SDS011;44930;52.878;6.168;2023-11-21T02:04:34;33.90;;;11.82;;
59147;SDS011;44930;52.878;6.168;2023-11-21T02:07:04;25.67;;;10.10;;
59147;SDS011;44930;52.878;6.168;2023-11-21T02:09:33;27.83;;;10.50;;
59147;SDS011;44930;52.878;6.168;2023-11-21T02:11:59;32.05;;;12.32;;
59147;SDS011;44930;52.878;6.168;2023-11-21T02:14:26;30.40;;;10.75;;
59147;SDS011;44930;52.878;6.168;2023-11-21T02:16:52;33.53;;;10.93;;
59147;SDS011;44930;52.878;6.168;2023-11-21T02:19:20;32.75;;;11.73;;
59147;SDS011;44930;52.878;6.168;2023-11-21T02:21:49;34.08;;;12.15;;
59147;SDS011;44930;52.878;6.168;2023-11-21T02:24:18;44.28;;;13.02;;
59147;SDS011;44930;52.878;6.168;2023-11-21T02:26:47;33.75;;;11.43;;
59147;SDS011;44930;52.878;6.168;2023-11-21T02:29:13;40.28;;;12.10;;
59147;SDS011;44930;52.878;6.168;2023-11-21T02:31:41;35.08;;;12.00;;
59147;SDS011;44930;52.878;6.168;2023-11-21T02:34:16;32.35;;;12.27;;
59147;SDS011;44930;52.878;6.168;2023-11-21T02:36:43;31.88;;;12.30;;
59147;SDS011;44930;52.878;6.168;2023-11-21T02:39:09;37.03;;;12.35;;
59147;SDS011;44930;52.878;6.168;2023-11-21T02:41:36;34.33;;;11.63;;
59147;SDS011;44930;52.878;6.168;2023-11-21T02:44:04;37.47;;;14.15;;
59147;SDS011;44930;52.878;6.168;2023-11-21T02:46:31;34.85;;;10.82;;
59147;SDS011;44930;52.878;6.168;2023-11-21T02:48:59;42.58;;;11.48;;
59147;SDS011;44930;52.878;6.168;2023-11-21T02:51:25;40.78;;;12.55;;
59147;SDS011;44930;52.878;6.168;2023-11-21T02:53:50;34.78;;;12.38;;
59147;SDS011;44930;52.878;6.168;2023-11-21T02:56:16;33.58;;;11.95;;
59147;SDS011;44930;52.878;6.168;2023-11-21T02:58:42;37.70;;;12.18;;
59147;SDS011;44930;52.878;6.168;2023-11-21T03:01:09;39.47;;;11.93;;
59147;SDS011;44930;52.878;6.168;2023-11-21T03:03:36;45.72;;;12.98;;
59147;SDS011;44930;52.878;6.168;2023-11-21T03:06:05;42.25;;;12.57;;
59147;SDS011;44930;52.878;6.168;2023-11-21T03:08:31;33.70;;;12.38;;
59147;SDS011;44930;52.878;6.168;2023-11-21T03:10:57;34.13;;;12.13;;
59147;SDS011;44930;52.878;6.168;2023-11-21T03:13:23;45.25;;;11.98;;
59147;SDS011;44930;52.878;6.168;2023-11-21T03:15:49;36.15;;;11.90;;
59147;SDS011;44930;52.878;6.168;2023-11-21T03:18:14;37.83;;;11.27;;
59147;SDS011;44930;52.878;6.168;2023-11-21T03:20:40;30.95;;;10.77;;
59147;SDS011;44930;52.878;6.168;2023-11-21T03:23:07;37.08;;;11.68;;
59147;SDS011;44930;52.878;6.168;2023-11-21T03:25:33;23.00;;;11.15;;
59147;SDS011;44930;52.878;6.168;2023-11-21T03:27:58;25.33;;;10.25;;
59147;SDS011;44930;52.878;6.168;2023-11-21T03:30:24;22.83;;;11.10;;
59147;SDS011;44930;52.878;6.168;2023-11-21T03:32:50;28.10;;;9.63;;
59147;SDS011;44930;52.878;6.168;2023-11-21T03:35:16;31.27;;;11.63;;
59147;SDS011;44930;52.878;6.168;2023-11-21T03:37:41;26.30;;;11.15;;
59147;SDS011;44930;52.878;6.168;2023-11-21T03:40:08;27.83;;;9.88;;
59147;SDS011;44930;52.878;6.168;2023-11-21T03:42:34;26.92;;;10.10;;
59147;SDS011;44930;52.878;6.168;2023-11-21T03:45:00;29.85;;;10.80;;
59147;SDS011;44930;52.878;6.168;2023-11-21T03:47:26;39.65;;;11.48;;
59147;SDS011;44930;52.878;6.168;2023-11-21T03:49:53;26.05;;;10.35;;
59147;SDS011;44930;52.878;6.168;2023-11-21T03:52:18;33.25;;;11.73;;
59147;SDS011;44930;52.878;6.168;2023-11-21T03:54:44;28.27;;;12.38;;
59147;SDS011;44930;52.878;6.168;2023-11-21T03:57:10;28.70;;;11.38;;
59147;SDS011;44930;52.878;6.168;2023-11-21T03:59:36;30.48;;;10.27;;
59147;SDS011;44930;52.878;6.168;2023-11-21T04:02:05;32.50;;;11.85;;
59147;SDS011;44930;52.878;6.168;2023-11-21T04:04:30;32.50;;;11.90;;
59147;SDS011;44930;52.878;6.168;2023-11-21T04:06:56;35.55;;;13.10;;
59147;SDS011;44930;52.878;6.168;2023-11-21T04:09:21;34.13;;;12.13;;
59147;SDS011;44930;52.878;6.168;2023-11-21T04:11:50;43.70;;;13.48;;
59147;SDS011;44930;52.878;6.168;2023-11-21T04:14:18;37.25;;;12.57;;
59147;SDS011;44930;52.878;6.168;2023-11-21T04:16:44;37.25;;;12.85;;
59147;SDS011;44930;52.878;6.168;2023-11-21T04:19:10;40.60;;;15.20;;
59147;SDS011;44930;52.878;6.168;2023-11-21T04:21:36;43.03;;;14.57;;
59147;SDS011;44930;52.878;6.168;2023-11-21T04:24:03;43.80;;;14.40;;
59147;SDS011;44930;52.878;6.168;2023-11-21T04:26:29;37.70;;;15.00;;
59147;SDS011;44930;52.878;6.168;2023-11-21T04:28:54;45.88;;;15.32;;
59147;SDS011;44930;52.878;6.168;2023-11-21T04:31:20;33.10;;;14.35;;
59147;SDS011;44930;52.878;6.168;2023-11-21T04:33:46;43.55;;;15.13;;
59147;SDS011;44930;52.878;6.168;2023-11-21T04:36:11;50.75;;;16.63;;
59147;SDS011;44930;52.878;6.168;2023-11-21T04:38:37;48.30;;;16.35;;
59147;SDS011;44930;52.878;6.168;2023-11-21T04:41:03;43.67;;;14.95;;
59147;SDS011;44930;52.878;6.168;2023-11-21T04:43:28;38.10;;;15.27;;
59147;SDS011;44930;52.878;6.168;2023-11-21T04:45:54;45.72;;;17.08;;
59147;SDS011;44930;52.878;6.168;2023-11-21T04:48:20;40.78;;;15.57;;
59147;SDS011;44930;52.878;6.168;2023-11-21T04:50:46;56.10;;;16.20;;
59147;SDS011;44930;52.878;6.168;2023-11-21T04:53:11;60.17;;;19.15;;
59147;SDS011;44930;52.878;6.168;2023-11-21T04:55:40;83.97;;;18.95;;
59147;SDS011;44930;52.878;6.168;2023-11-21T04:58:06;55.97;;;17.60;;
59147;SDS011;44930;52.878;6.168;2023-11-21T05:00:33;58.33;;;18.88;;
59147;SDS011;44930;52.878;6.168;2023-11-21T05:02:58;56.85;;;18.17;;
59147;SDS011;44930;52.878;6.168;2023-11-21T05:05:26;74.35;;;19.40;;
59147;SDS011;44930;52.878;6.168;2023-11-21T05:07:52;53.45;;;17.42;;
59147;SDS011;44930;52.878;6.168;2023-11-21T05:10:18;64.70;;;17.77;;
59147;SDS011;44930;52.878;6.168;2023-11-21T05:12:45;74.18;;;18.98;;
59147;SDS011;44930;52.878;6.168;2023-11-21T05:15:13;77.72;;;19.85;;
59147;SDS011;44930;52.878;6.168;2023-11-21T05:17:40;73.70;;;20.95;;
59147;SDS011;44930;52.878;6.168;2023-11-21T05:20:09;61.38;;;19.00;;
59147;SDS011;44930;52.878;6.168;2023-11-21T05:22:37;79.80;;;21.70;;
59147;SDS011;44930;52.878;6.168;2023-11-21T05:25:02;51.45;;;18.40;;
59147;SDS011;44930;52.878;6.168;2023-11-21T05:27:31;57.10;;;20.25;;
59147;SDS011;44930;52.878;6.168;2023-11-21T05:29:57;66.50;;;20.25;;
59147;SDS011;44930;52.878;6.168;2023-11-21T05:32:23;65.85;;;21.50;;
59147;SDS011;44930;52.878;6.168;2023-11-21T05:34:49;47.03;;;18.58;;
59147;SDS011;44930;52.878;6.168;2023-11-21T05:37:15;56.13;;;19.48;;
59147;SDS011;44930;52.878;6.168;2023-11-21T05:39:40;52.58;;;19.83;;
59147;SDS011;44930;52.878;6.168;2023-11-21T05:42:06;61.13;;;19.17;;
59147;SDS011;44930;52.878;6.168;2023-11-21T05:44:33;53.58;;;19.35;;
59147;SDS011;44930;52.878;6.168;2023-11-21T05:47:00;48.10;;;18.60;;
59147;SDS011;44930;52.878;6.168;2023-11-21T05:49:26;57.03;;;19.75;;
59147;SDS011;44930;52.878;6.168;2023-11-21T05:51:52;58.88;;;18.75;;
59147;SDS011;44930;52.878;6.168;2023-11-21T05:54:19;60.28;;;21.63;;
59147;SDS011;44930;52.878;6.168;2023-11-21T05:56:45;50.75;;;19.52;;
59147;SDS011;44930;52.878;6.168;2023-11-21T05:59:12;63.95;;;20.67;;
59147;SDS011;44930;52.878;6.168;2023-11-21T06:01:37;48.53;;;18.65;;
59147;SDS011;44930;52.878;6.168;2023-11-21T06:04:03;50.03;;;20.13;;
59147;SDS011;44930;52.878;6.168;2023-11-21T06:06:30;50.92;;;19.48;;
59147;SDS011;44930;52.878;6.168;2023-11-21T06:08:56;42.55;;;17.55;;
59147;SDS011;44930;52.878;6.168;2023-11-21T06:11:22;46.10;;;17.75;;
59147;SDS011;44930;52.878;6.168;2023-11-21T06:13:49;34.17;;;15.95;;
59147;SDS011;44930;52.878;6.168;2023-11-21T06:16:15;38.97;;;18.20;;
59147;SDS011;44930;52.878;6.168;2023-11-21T06:18:44;27.63;;;14.90;;
59147;SDS011;44930;52.878;6.168;2023-11-21T06:21:10;38.70;;;16.33;;
59147;SDS011;44930;52.878;6.168;2023-11-21T06:23:36;34.45;;;16.15;;
59147;SDS011;44930;52.878;6.168;2023-11-21T06:26:01;32.28;;;15.85;;
59147;SDS011;44930;52.878;6.168;2023-11-21T06:28:27;34.95;;;16.20;;
59147;SDS011;44930;52.878;6.168;2023-11-21T06:30:53;30.70;;;15.68;;
59147;SDS011;44930;52.878;6.168;2023-11-21T06:33:18;35.53;;;15.93;;
59147;SDS011;44930;52.878;6.168;2023-11-21T06:35:44;28.52;;;14.90;;
59147;SDS011;44930;52.878;6.168;2023-11-21T06:38:10;34.47;;;15.15;;
59147;SDS011;44930;52.878;6.168;2023-11-21T06:40:36;36.08;;;15.00;;
59147;SDS011;44930;52.878;6.168;2023-11-21T06:43:02;33.40;;;14.25;;
59147;SDS011;44930;52.878;6.168;2023-11-21T06:45:29;28.80;;;13.70;;
59147;SDS011;44930;52.878;6.168;2023-11-21T06:47:55;32.28;;;13.88;;
59147;SDS011;44930;52.878;6.168;2023-11-21T06:50:21;28.92;;;14.32;;
59147;SDS011;44930;52.878;6.168;2023-11-21T06:52:47;31.33;;;14.52;;
59147;SDS011;44930;52.878;6.168;2023-11-21T06:55:13;33.72;;;14.10;;
59147;SDS011;44930;52.878;6.168;2023-11-21T06:57:41;36.08;;;14.82;;
59147;SDS011;44930;52.878;6.168;2023-11-21T07:00:06;27.73;;;14.60;;
59147;SDS011;44930;52.878;6.168;2023-11-21T07:02:34;34.25;;;15.85;;
59147;SDS011;44930;52.878;6.168;2023-11-21T07:04:59;35.42;;;15.55;;
59147;SDS011;44930;52.878;6.168;2023-11-21T07:07:25;38.63;;;15.65;;
59147;SDS011;44930;52.878;6.168;2023-11-21T07:09:52;44.95;;;16.67;;
59147;SDS011;44930;52.878;6.168;2023-11-21T07:12:17;37.55;;;16.17;;
59147;SDS011;44930;52.878;6.168;2023-11-21T07:14:43;36.30;;;16.50;;
59147;SDS011;44930;52.878;6.168;2023-11-21T07:17:10;37.85;;;15.77;;
59147;SDS011;44930;52.878;6.168;2023-11-21T07:19:37;48.22;;;18.70;;
59147;SDS011;44930;52.878;6.168;2023-11-21T07:22:03;44.10;;;16.80;;
59147;SDS011;44930;52.878;6.168;2023-11-21T07:24:30;40.50;;;16.42;;
59147;SDS011;44930;52.878;6.168;2023-11-21T07:26:57;39.47;;;15.73;;
59147;SDS011;44930;52.878;6.168;2023-11-21T07:29:23;33.00;;;15.93;;
59147;SDS011;44930;52.878;6.168;2023-11-21T07:31:54;34.50;;;14.25;;
59147;SDS011;44930;52.878;6.168;2023-11-21T07:34:20;33.22;;;14.32;;
59147;SDS011;44930;52.878;6.168;2023-11-21T07:36:47;39.47;;;14.98;;
59147;SDS011;44930;52.878;6.168;2023-11-21T07:39:13;31.13;;;14.30;;
59147;SDS011;44930;52.878;6.168;2023-11-21T07:41:41;34.58;;;14.55;;
59147;SDS011;44930;52.878;6.168;2023-11-21T07:44:13;31.10;;;13.63;;
59147;SDS011;44930;52.878;6.168;2023-11-21T07:46:39;30.15;;;13.73;;
59147;SDS011;44930;52.878;6.168;2023-11-21T07:49:05;29.20;;;13.23;;
59147;SDS011;44930;52.878;6.168;2023-11-21T07:51:31;32.00;;;13.48;;
59147;SDS011;44930;52.878;6.168;2023-11-21T07:53:57;26.40;;;12.20;;
59147;SDS011;44930;52.878;6.168;2023-11-21T07:56:23;24.75;;;12.70;;
59147;SDS011;44930;52.878;6.168;2023-11-21T07:58:49;20.20;;;10.80;;
59147;SDS011;44930;52.878;6.168;2023-11-21T08:01:15;21.70;;;10.77;;
59147;SDS011;44930;52.878;6.168;2023-11-21T08:03:40;22.92;;;11.60;;
59147;SDS011;44930;52.878;6.168;2023-11-21T08:06:06;21.52;;;10.75;;
59147;SDS011;44930;52.878;6.168;2023-11-21T08:08:32;21.85;;;11.57;;
59147;SDS011;44930;52.878;6.168;2023-11-21T08:10:58;22.35;;;11.23;;
59147;SDS011;44930;52.878;6.168;2023-11-21T08:13:26;26.73;;;13.50;;
59147;SDS011;44930;52.878;6.168;2023-11-21T08:15:55;24.88;;;11.52;;
59147;SDS011;44930;52.878;6.168;2023-11-21T08:18:21;24.13;;;12.02;;
59147;SDS011;44930;52.878;6.168;2023-11-21T08:20:48;25.38;;;12.57;;
59147;SDS011;44930;52.878;6.168;2023-11-21T08:23:17;22.38;;;12.68;;
59147;SDS011;44930;52.878;6.168;2023-11-21T08:25:43;24.02;;;13.07;;
59147;SDS011;44930;52.878;6.168;2023-11-21T08:28:09;27.95;;;12.43;;
59147;SDS011;44930;52.878;6.168;2023-11-21T08:30:35;25.35;;;13.13;;
59147;SDS011;44930;52.878;6.168;2023-11-21T08:33:00;24.13;;;12.13;;
59147;SDS011;44930;52.878;6.168;2023-11-21T08:35:28;25.48;;;13.55;;
59147;SDS011;44930;52.878;6.168;2023-11-21T08:37:53;24.85;;;11.73;;
59147;SDS011;44930;52.878;6.168;2023-11-21T08:40:20;27.63;;;12.95;;
59147;SDS011;44930;52.878;6.168;2023-11-21T08:42:46;27.90;;;12.70;;
59147;SDS011;44930;52.878;6.168;2023-11-21T08:45:13;27.58;;;13.35;;
59147;SDS011;44930;52.878;6.168;2023-11-21T08:47:39;23.70;;;12.80;;
59147;SDS011;44930;52.878;6.168;2023-11-21T08:50:05;26.30;;;12.88;;
59147;SDS011;44930;52.878;6.168;2023-11-21T08:52:33;32.22;;;14.52;;
59147;SDS011;44930;52.878;6.168;2023-11-21T08:54:58;28.90;;;13.35;;
59147;SDS011;44930;52.878;6.168;2023-11-21T08:57:27;29.70;;;13.73;;
59147;SDS011;44930;52.878;6.168;2023-11-21T08:59:53;30.25;;;13.20;;
59147;SDS011;44930;52.878;6.168;2023-11-21T09:02:23;32.15;;;14.88;;
59147;SDS011;44930;52.878;6.168;2023-11-21T09:04:51;27.88;;;12.93;;
59147;SDS011;44930;52.878;6.168;2023-11-21T09:07:17;22.77;;;11.90;;
59147;SDS011;44930;52.878;6.168;2023-11-21T09:09:45;18.98;;;10.77;;
59147;SDS011;44930;52.878;6.168;2023-11-21T09:12:14;16.35;;;9.68;;
59147;SDS011;44930;52.878;6.168;2023-11-21T09:14:42;16.38;;;9.23;;
59147;SDS011;44930;52.878;6.168;2023-11-21T09:17:09;19.23;;;9.98;;
59147;SDS011;44930;52.878;6.168;2023-11-21T09:19:38;17.73;;;10.30;;
59147;SDS011;44930;52.878;6.168;2023-11-21T09:22:03;18.10;;;11.57;;
59147;SDS011;44930;52.878;6.168;2023-11-21T09:24:32;18.73;;;10.68;;
59147;SDS011;44930;52.878;6.168;2023-11-21T09:26:59;17.13;;;9.90;;
59147;SDS011;44930;52.878;6.168;2023-11-21T09:29:28;17.75;;;10.30;;
59147;SDS011;44930;52.878;6.168;2023-11-21T09:31:54;15.68;;;9.82;;
59147;SDS011;44930;52.878;6.168;2023-11-21T09:34:20;17.88;;;9.43;;
59147;SDS011;44930;52.878;6.168;2023-11-21T09:36:46;16.95;;;9.63;;
59147;SDS011;44930;52.878;6.168;2023-11-21T09:39:13;15.18;;;9.25;;
59147;SDS011;44930;52.878;6.168;2023-11-21T09:41:50;17.25;;;10.43;;
59147;SDS011;44930;52.878;6.168;2023-11-21T09:44:25;18.17;;;10.43;;
59147;SDS011;44930;52.878;6.168;2023-11-21T09:47:23;16.27;;;10.40;;
59147;SDS011;44930;52.878;6.168;2023-11-21T09:49:49;18.52;;;10.95;;
59147;SDS011;44930;52.878;6.168;2023-11-21T09:52:26;24.15;;;13.57;;
59147;SDS011;44930;52.878;6.168;2023-11-21T09:54:53;20.20;;;12.57;;
59147;SDS011;44930;52.878;6.168;2023-11-21T09:57:22;21.02;;;12.77;;
59147;SDS011;44930;52.878;6.168;2023-11-21T09:59:51;23.05;;;13.25;;
59147;SDS011;44930;52.878;6.168;2023-11-21T10:02:24;22.08;;;13.65;;
59147;SDS011;44930;52.878;6.168;2023-11-21T10:04:53;22.48;;;14.85;;
59147;SDS011;44930;52.878;6.168;2023-11-21T10:07:20;22.80;;;14.20;;
59147;SDS011;44930;52.878;6.168;2023-11-21T10:09:46;22.33;;;14.63;;
59147;SDS011;44930;52.878;6.168;2023-11-21T10:12:13;22.85;;;14.05;;
59147;SDS011;44930;52.878;6.168;2023-11-21T10:14:40;25.35;;;16.52;;
59147;SDS011;44930;52.878;6.168;2023-11-21T10:17:09;32.72;;;15.90;;
59147;SDS011;44930;52.878;6.168;2023-11-21T10:19:37;27.42;;;17.02;;
59147;SDS011;44930;52.878;6.168;2023-11-21T10:22:04;22.70;;;15.05;;
59147;SDS011;44930;52.878;6.168;2023-11-21T10:24:31;19.08;;;13.65;;
59147;SDS011;44930;52.878;6.168;2023-11-21T10:26:58;20.38;;;14.10;;
59147;SDS011;44930;52.878;6.168;2023-11-21T10:29:23;19.60;;;13.73;;
59147;SDS011;44930;52.878;6.168;2023-11-21T10:31:51;17.52;;;14.05;;
59147;SDS011;44930;52.878;6.168;2023-11-21T10:34:20;17.33;;;13.05;;
59147;SDS011;44930;52.878;6.168;2023-11-21T10:36:46;16.23;;;13.38;;
59147;SDS011;44930;52.878;6.168;2023-11-21T10:39:18;17.08;;;13.32;;
59147;SDS011;44930;52.878;6.168;2023-11-21T10:41:45;18.40;;;13.93;;
59147;SDS011;44930;52.878;6.168;2023-11-21T10:44:15;17.90;;;13.07;;
59147;SDS011;44930;52.878;6.168;2023-11-21T10:46:51;16.30;;;12.90;;
59147;SDS011;44930;52.878;6.168;2023-11-21T10:49:21;16.77;;;12.98;;
59147;SDS011;44930;52.878;6.168;2023-11-21T10:51:49;18.30;;;12.80;;
59147;SDS011;44930;52.878;6.168;2023-11-21T10:54:20;15.65;;;12.93;;
59147;SDS011;44930;52.878;6.168;2023-11-21T10:56:48;18.83;;;14.27;;
59147;SDS011;44930;52.878;6.168;2023-11-21T10:59:16;18.13;;;13.68;;
59147;SDS011;44930;52.878;6.168;2023-11-21T11:01:42;18.67;;;13.82;;
59147;SDS011;44930;52.878;6.168;2023-11-21T11:04:10;19.75;;;14.40;;
59147;SDS011;44930;52.878;6.168;2023-11-21T11:06:42;21.63;;;15.52;;
59147;SDS011;44930;52.878;6.168;2023-11-21T11:09:12;19.60;;;14.93;;
59147;SDS011;44930;52.878;6.168;2023-11-21T11:11:42;19.05;;;15.07;;
59147;SDS011;44930;52.878;6.168;2023-11-21T11:14:12;20.27;;;15.00;;
59147;SDS011;44930;52.878;6.168;2023-11-21T11:16:39;18.40;;;14.75;;
59147;SDS011;44930;52.878;6.168;2023-11-21T11:19:08;20.50;;;13.98;;
59147;SDS011;44930;52.878;6.168;2023-11-21T11:21:51;22.30;;;14.52;;
59147;SDS011;44930;52.878;6.168;2023-11-21T11:24:41;20.05;;;13.45;;
59147;SDS011;44930;52.878;6.168;2023-11-21T11:30:16;16.30;;;13.85;;
59147;SDS011;44930;52.878;6.168;2023-11-21T11:35:38;18.25;;;14.00;;
59147;SDS011;44930;52.878;6.168;2023-11-21T11:38:16;18.23;;;13.48;;
59147;SDS011;44930;52.878;6.168;2023-11-21T11:40:46;15.70;;;12.80;;
59147;SDS011;44930;52.878;6.168;2023-11-21T11:43:12;14.05;;;11.73;;
59147;SDS011;44930;52.878;6.168;2023-11-21T11:45:37;18.90;;;14.10;;
59147;SDS011;44930;52.878;6.168;2023-11-21T11:48:07;13.60;;;11.15;;
59147;SDS011;44930;52.878;6.168;2023-11-21T11:50:41;12.95;;;10.30;;
59147;SDS011;44930;52.878;6.168;2023-11-21T11:53:14;14.73;;;10.30;;
59147;SDS011;44930;52.878;6.168;2023-11-21T11:55:40;14.10;;;11.35;;
59147;SDS011;44930;52.878;6.168;2023-11-21T11:58:06;14.00;;;10.00;;
59147;SDS011;44930;52.878;6.168;2023-11-21T12:00:33;12.10;;;8.88;;
59147;SDS011;44930;52.878;6.168;2023-11-21T12:03:02;11.43;;;8.23;;
59147;SDS011;44930;52.878;6.168;2023-11-21T12:05:30;11.55;;;8.90;;
59147;SDS011;44930;52.878;6.168;2023-11-21T12:08:08;11.38;;;8.57;;
59147;SDS011;44930;52.878;6.168;2023-11-21T12:10:36;11.88;;;8.55;;
59147;SDS011;44930;52.878;6.168;2023-11-21T12:15:35;11.27;;;8.52;;
59147;SDS011;44930;52.878;6.168;2023-11-21T12:18:01;9.95;;;7.95;;
59147;SDS011;44930;52.878;6.168;2023-11-21T12:20:27;12.20;;;9.05;;
59147;SDS011;44930;52.878;6.168;2023-11-21T12:22:54;12.57;;;8.57;;
59147;SDS011;44930;52.878;6.168;2023-11-21T12:25:24;10.25;;;8.00;;
59147;SDS011;44930;52.878;6.168;2023-11-21T12:27:54;12.55;;;8.55;;
59147;SDS011;44930;52.878;6.168;2023-11-21T12:30:22;10.52;;;8.55;;
59147;SDS011;44930;52.878;6.168;2023-11-21T12:32:52;10.68;;;8.23;;
59147;SDS011;44930;52.878;6.168;2023-11-21T12:35:23;10.10;;;8.18;;
59147;SDS011;44930;52.878;6.168;2023-11-21T12:37:51;10.77;;;7.78;;
59147;SDS011;44930;52.878;6.168;2023-11-21T12:40:17;12.65;;;8.48;;
59147;SDS011;44930;52.878;6.168;2023-11-21T12:42:43;11.77;;;8.32;;
59147;SDS011;44930;52.878;6.168;2023-11-21T12:47:52;10.77;;;7.90;;
59147;SDS011;44930;52.878;6.168;2023-11-21T12:50:24;10.15;;;8.38;;
59147;SDS011;44930;52.878;6.168;2023-11-21T12:52:58;8.93;;;7.32;;
59147;SDS011;44930;52.878;6.168;2023-11-21T12:55:31;9.85;;;7.35;;
59147;SDS011;44930;52.878;6.168;2023-11-21T12:57:58;10.07;;;7.35;;
59147;SDS011;44930;52.878;6.168;2023-11-21T13:00:34;11.30;;;7.32;;
59147;SDS011;44930;52.878;6.168;2023-11-21T13:03:03;9.85;;;7.03;;
59147;SDS011;44930;52.878;6.168;2023-11-21T13:05:30;11.43;;;7.50;;
59147;SDS011;44930;52.878;6.168;2023-11-21T13:08:02;9.10;;;7.10;;
59147;SDS011;44930;52.878;6.168;2023-11-21T13:10:29;9.52;;;6.88;;
59147;SDS011;44930;52.878;6.168;2023-11-21T13:13:03;9.13;;;7.13;;
59147;SDS011;44930;52.878;6.168;2023-11-21T13:15:33;13.68;;;7.32;;
59147;SDS011;44930;52.878;6.168;2023-11-21T13:18:01;8.25;;;6.60;;
59147;SDS011;44930;52.878;6.168;2023-11-21T13:20:27;9.45;;;6.13;;
59147;SDS011;44930;52.878;6.168;2023-11-21T13:22:55;8.65;;;6.25;;
59147;SDS011;44930;52.878;6.168;2023-11-21T13:25:26;11.20;;;6.97;;
59147;SDS011;44930;52.878;6.168;2023-11-21T13:27:56;10.35;;;5.68;;
59147;SDS011;44930;52.878;6.168;2023-11-21T13:30:24;8.13;;;5.32;;
59147;SDS011;44930;52.878;6.168;2023-11-21T13:32:58;9.07;;;5.55;;
59147;SDS011;44930;52.878;6.168;2023-11-21T13:35:30;8.77;;;5.32;;
59147;SDS011;44930;52.878;6.168;2023-11-21T13:38:02;8.27;;;5.30;;
59147;SDS011;44930;52.878;6.168;2023-11-21T13:40:30;8.05;;;6.10;;
59147;SDS011;44930;52.878;6.168;2023-11-21T13:42:59;10.18;;;5.68;;
59147;SDS011;44930;52.878;6.168;2023-11-21T13:45:27;7.72;;;6.07;;
59147;SDS011;44930;52.878;6.168;2023-11-21T13:47:54;7.45;;;5.63;;
59147;SDS011;44930;52.878;6.168;2023-11-21T13:50:26;8.40;;;6.18;;
59147;SDS011;44930;52.878;6.168;2023-11-21T13:52:58;9.18;;;5.40;;
59147;SDS011;44930;52.878;6.168;2023-11-21T13:55:29;8.20;;;6.20;;
59147;SDS011;44930;52.878;6.168;2023-11-21T13:57:55;11.65;;;7.25;;
59147;SDS011;44930;52.878;6.168;2023-11-21T14:00:20;10.07;;;6.78;;
59147;SDS011;44930;52.878;6.168;2023-11-21T14:03:21;10.35;;;6.40;;
59147;SDS011;44930;52.878;6.168;2023-11-21T14:05:49;7.63;;;6.00;;
59147;SDS011;44930;52.878;6.168;2023-11-21T14:08:20;8.95;;;6.25;;
59147;SDS011;44930;52.878;6.168;2023-11-21T14:10:48;7.97;;;5.68;;
59147;SDS011;44930;52.878;6.168;2023-11-21T14:13:22;10.27;;;7.18;;
59147;SDS011;44930;52.878;6.168;2023-11-21T14:15:49;9.13;;;5.88;;
59147;SDS011;44930;52.878;6.168;2023-11-21T14:18:22;9.50;;;6.00;;
59147;SDS011;44930;52.878;6.168;2023-11-21T14:21:04;8.43;;;5.10;;
59147;SDS011;44930;52.878;6.168;2023-11-21T14:23:31;9.20;;;5.70;;
59147;SDS011;44930;52.878;6.168;2023-11-21T14:25:58;8.60;;;5.43;;
59147;SDS011;44930;52.878;6.168;2023-11-21T14:28:26;7.47;;;5.90;;
59147;SDS011;44930;52.878;6.168;2023-11-21T14:30:51;8.93;;;5.38;;
59147;SDS011;44930;52.878;6.168;2023-11-21T14:33:17;7.88;;;5.70;;
59147;SDS011;44930;52.878;6.168;2023-11-21T14:35:43;8.43;;;5.93;;
59147;SDS011;44930;52.878;6.168;2023-11-21T14:38:09;8.32;;;5.68;;